Time;durP1;ratioP1;P1;durP2;ratioP2;P2;SDS_P1;SDS_P2;PMS_P1;PMS_P2;Temp;Humidity;BMP_temperature;BMP_pressure;BME280_temperature;BME280_humidity;BME280_pressure;Samples;Min_cycle;Max_cycle;Signal;HPM_P1;HPM_P2
2021/12/11 00:00:37;;;;;;;50.88;30.92;;;4.20;99.90;;;;;;4993026;28;20432;-74
2021/12/11 00:03:15;;;;;;;56.92;31.42;;;4.30;99.90;;;;;;4995986;28;20477;-67
2021/12/11 00:05:44;;;;;;;60.08;32.80;;;4.30;99.90;;;;;;4994323;28;20037;-70
2021/12/11 00:08:14;;;;;;;62.03;34.65;;;4.30;99.90;;;;;;4993339;28;20019;-69
2021/12/11 00:10:48;;;;;;;57.95;31.75;;;4.30;99.90;;;;;;4995458;28;20034;-69
2021/12/11 00:13:22;;;;;;;65.25;37.38;;;4.40;99.90;;;;;;4995310;28;20045;-71
2021/12/11 00:15:48;;;;;;;93.43;45.33;;;4.40;99.90;;;;;;4992257;28;20042;-70
2021/12/11 00:18:23;;;;;;;72.45;36.83;;;4.40;99.90;;;;;;5010081;28;20022;-66
2021/12/11 00:21:00;;;;;;;80.82;42.92;;;4.40;99.90;;;;;;4992666;28;20033;-70
2021/12/11 00:23:35;;;;;;;76.95;41.60;;;4.40;99.90;;;;;;4994903;28;20384;-72
2021/12/11 00:26:02;;;;;;;95.45;50.53;;;4.40;99.90;;;;;;4994794;28;20113;-71
2021/12/11 00:28:28;;;;;;;78.57;41.25;;;4.30;99.90;;;;;;4995340;28;20080;-72
2021/12/11 00:30:55;;;;;;;79.78;44.60;;;4.30;99.90;;;;;;4995428;28;20073;-70
2021/12/11 00:33:24;;;;;;;61.80;31.42;;;4.30;99.90;;;;;;4996222;28;20027;-70
2021/12/11 00:35:56;;;;;;;60.10;33.10;;;4.20;99.90;;;;;;4995537;28;20034;-70
2021/12/11 00:38:33;;;;;;;50.90;26.02;;;4.20;99.90;;;;;;4994966;28;20380;-72
2021/12/11 00:41:02;;;;;;;83.55;40.30;;;4.20;99.90;;;;;;4996150;28;20031;-71
2021/12/11 00:43:34;;;;;;;51.45;28.60;;;4.20;99.90;;;;;;4995844;28;20033;-70
2021/12/11 00:46:00;;;;;;;53.40;29.48;;;4.20;99.90;;;;;;4996039;28;20468;-72
2021/12/11 00:48:27;;;;;;;50.42;28.48;;;4.10;99.90;;;;;;4995844;28;20034;-69
2021/12/11 00:51:06;;;;;;;53.45;29.58;;;4.00;99.90;;;;;;4996175;28;20028;-73
2021/12/11 00:53:38;;;;;;;59.38;31.15;;;4.00;99.90;;;;;;4995400;28;20041;-71
2021/12/11 00:56:09;;;;;;;50.85;27.13;;;3.90;99.90;;;;;;4995849;28;20038;-69
2021/12/11 00:58:37;;;;;;;44.63;25.70;;;3.90;99.90;;;;;;4995769;28;20404;-70
2021/12/11 01:01:06;;;;;;;60.92;34.30;;;4.00;99.90;;;;;;4995983;28;20523;-68
2021/12/11 01:03:43;;;;;;;59.33;31.48;;;4.10;99.90;;;;;;4995523;28;20049;-72
2021/12/11 01:06:13;;;;;;;52.15;32.00;;;4.10;99.90;;;;;;4995336;28;20026;-71
2021/12/11 01:08:44;;;;;;;79.13;44.35;;;4.20;99.90;;;;;;4995003;28;20101;-70
2021/12/11 01:11:21;;;;;;;89.60;51.00;;;4.20;99.90;;;;;;4995297;28;20039;-72
2021/12/11 01:14:19;;;;;;;82.35;43.25;;;4.30;99.90;;;;;;4994464;28;20076;-72
2021/12/11 01:17:00;;;;;;;141.70;79.70;;;4.30;99.90;;;;;;4994703;28;20043;-69
2021/12/11 01:19:28;;;;;;;109.90;60.40;;;4.30;99.90;;;;;;4995392;28;20034;-68
2021/12/11 01:21:59;;;;;;;113.93;64.22;;;4.40;99.90;;;;;;4994671;28;20128;-71
2021/12/11 01:24:43;;;;;;;90.10;50.28;;;4.40;99.90;;;;;;4995097;28;20448;-72
2021/12/11 01:27:12;;;;;;;54.10;31.00;;;4.40;99.90;;;;;;4995239;28;20046;-69
2021/12/11 01:29:39;;;;;;;64.80;37.53;;;4.30;99.90;;;;;;4995468;28;20026;-71
2021/12/11 01:32:06;;;;;;;70.28;39.83;;;4.20;99.90;;;;;;4995238;28;20034;-72
2021/12/11 01:34:33;;;;;;;80.32;48.72;;;4.20;99.90;;;;;;4995026;28;20045;-69
2021/12/11 01:37:00;;;;;;;75.20;42.15;;;4.20;99.90;;;;;;4994600;28;20031;-69
2021/12/11 01:39:30;;;;;;;53.42;34.63;;;4.10;99.90;;;;;;4995046;28;20384;-72
2021/12/11 01:41:57;;;;;;;72.93;37.78;;;4.10;99.90;;;;;;4994656;28;20034;-73
2021/12/11 01:44:31;;;;;;;51.78;30.27;;;4.10;99.90;;;;;;4994776;28;20353;-72
2021/12/11 01:47:03;;;;;;;59.63;30.80;;;4.10;99.90;;;;;;4994144;28;20030;-72
2021/12/11 01:49:31;;;;;;;57.78;32.67;;;4.10;99.90;;;;;;4994967;28;20030;-73
2021/12/11 01:52:05;;;;;;;55.63;31.65;;;4.10;99.90;;;;;;4994840;28;20030;-74
2021/12/11 01:54:35;;;;;;;60.28;32.00;;;4.20;99.90;;;;;;4994498;28;20035;-73
2021/12/11 01:57:08;;;;;;;45.28;24.60;;;4.20;99.90;;;;;;4994599;28;20092;-73
2021/12/11 01:59:38;;;;;;;45.00;26.30;;;4.00;99.90;;;;;;4994864;28;20027;-74
2021/12/11 02:02:14;;;;;;;46.17;27.83;;;4.00;99.90;;;;;;4994678;28;20030;-73
2021/12/11 02:04:44;;;;;;;49.42;26.60;;;3.90;99.90;;;;;;4994412;28;20030;-68
2021/12/11 02:07:15;;;;;;;45.85;27.23;;;3.90;99.90;;;;;;4987882;28;20113;-74
2021/12/11 02:09:51;;;;;;;55.45;29.65;;;4.00;99.90;;;;;;4993481;28;20465;-74
2021/12/11 02:12:27;;;;;;;54.13;27.13;;;4.00;99.90;;;;;;4994230;28;20030;-74
2021/12/11 02:14:54;;;;;;;50.22;27.95;;;3.90;99.90;;;;;;4994480;28;20109;-74
2021/12/11 02:17:45;;;;;;;47.25;25.88;;;3.90;99.90;;;;;;4993892;28;20169;-70
2021/12/11 02:20:14;;;;;;;59.60;31.42;;;3.90;99.90;;;;;;4993906;28;20168;-71
2021/12/11 02:22:48;;;;;;;54.50;28.60;;;3.80;99.90;;;;;;4993917;28;20062;-70
2021/12/11 02:25:18;;;;;;;;;;;3.80;99.90;;;;;;4994373;28;20560;-73
2021/12/11 02:27:54;;;;;;;53.45;28.98;;;3.80;99.90;;;;;;4993978;28;20048;-72
2021/12/11 02:30:29;;;;;;;54.03;28.30;;;3.90;99.90;;;;;;4993403;28;20031;-70
2021/12/11 02:33:07;;;;;;;49.17;29.70;;;3.80;99.90;;;;;;4994293;28;20034;-72
2021/12/11 02:35:39;;;;;;;54.17;26.55;;;3.90;99.90;;;;;;4993553;28;20046;-68
2021/12/11 02:38:16;;;;;;;53.90;27.92;;;3.90;99.90;;;;;;4994229;28;20416;-71
2021/12/11 02:40:54;;;;;;;46.65;27.05;;;3.80;99.90;;;;;;4991171;28;20038;-71
2021/12/11 02:43:23;;;;;;;54.28;27.33;;;4.00;99.90;;;;;;4993614;28;20062;-72
2021/12/11 02:46:21;;;;;;;54.25;31.67;;;4.00;99.90;;;;;;4994153;28;20105;-72
2021/12/11 02:48:50;;;;;;;51.28;27.60;;;3.90;99.90;;;;;;4952937;29;20075;-72
2021/12/11 02:51:32;;;;;;;51.95;27.05;;;4.00;99.90;;;;;;4952976;29;20521;-71
2021/12/11 02:54:08;;;;;;;53.80;27.83;;;4.00;99.90;;;;;;4933898;29;20031;-71
2021/12/11 02:56:43;;;;;;;60.03;29.60;;;4.00;99.90;;;;;;4933798;29;20036;-71
2021/12/11 02:59:15;;;;;;;60.55;33.28;;;3.90;99.90;;;;;;4937646;29;20132;-71
2021/12/11 03:02:11;;;;;;;52.30;30.00;;;3.90;99.90;;;;;;4952716;29;20124;-71
2021/12/11 03:04:44;;;;;;;53.42;30.63;;;3.80;99.90;;;;;;4950413;29;20043;-71
2021/12/11 03:07:15;;;;;;;52.55;28.25;;;3.70;99.90;;;;;;4952575;29;20587;-72
2021/12/11 03:09:48;;;;;;;54.58;30.15;;;3.80;99.90;;;;;;4952508;29;20031;-72
2021/12/11 03:12:14;;;;;;;;;;;3.70;99.90;;;;;;4952479;29;20106;-71
2021/12/11 03:14:42;;;;;;;55.05;28.17;;;3.70;99.90;;;;;;4952142;29;19907;-72
2021/12/11 03:17:09;;;;;;;57.47;30.05;;;3.60;99.90;;;;;;4951922;29;20051;-72
2021/12/11 03:19:39;;;;;;;62.33;31.75;;;3.60;99.90;;;;;;4951939;29;20468;-70
2021/12/11 03:22:08;;;;;;;66.85;34.90;;;3.60;99.90;;;;;;4952132;29;20066;-72
2021/12/11 03:24:34;;;;;;;72.05;36.75;;;3.60;99.90;;;;;;4982438;28;20446;-71
2021/12/11 03:27:00;;;;;;;65.65;31.88;;;3.70;99.90;;;;;;4992318;28;20035;-72
2021/12/11 03:29:26;;;;;;;60.75;32.15;;;3.70;99.90;;;;;;4992613;28;20023;-71
2021/12/11 03:31:52;;;;;;;53.65;28.90;;;3.70;99.90;;;;;;4992451;28;20062;-71
2021/12/11 03:34:22;;;;;;;63.28;30.25;;;3.70;99.90;;;;;;4994549;28;20041;-72
2021/12/11 03:36:48;;;;;;;66.45;30.50;;;3.70;99.90;;;;;;4995854;28;20034;-72
2021/12/11 03:39:22;;;;;;;62.00;31.73;;;3.80;99.90;;;;;;4995801;28;20029;-73
2021/12/11 03:41:49;;;;;;;58.97;32.70;;;3.80;99.90;;;;;;4996032;28;20138;-73
2021/12/11 03:44:16;;;;;;;64.60;34.85;;;3.80;99.90;;;;;;4995930;28;20505;-70
2021/12/11 03:46:46;;;;;;;63.72;33.83;;;3.80;99.90;;;;;;4995641;28;20117;-69
2021/12/11 03:49:16;;;;;;;71.68;33.17;;;3.80;99.90;;;;;;4995725;28;20105;-72
2021/12/11 03:51:44;;;;;;;63.90;33.17;;;3.80;99.90;;;;;;4995650;28;20030;-71
2021/12/11 03:54:19;;;;;;;56.00;32.60;;;3.80;99.90;;;;;;4995937;28;20206;-72
2021/12/11 03:56:45;;;;;;;70.65;36.42;;;3.90;99.90;;;;;;4995751;28;20057;-72
2021/12/11 03:59:13;;;;;;;71.75;36.03;;;3.80;99.90;;;;;;4995534;28;20432;-72
2021/12/11 04:01:51;;;;;;;71.22;36.35;;;3.80;99.90;;;;;;4995353;28;20030;-72
2021/12/11 04:04:22;;;;;;;78.00;33.90;;;3.80;99.90;;;;;;4995158;28;20026;-71
2021/12/11 04:06:49;;;;;;;65.72;34.50;;;3.90;99.90;;;;;;4995091;28;20057;-72
2021/12/11 04:09:18;;;;;;;74.00;33.85;;;3.80;99.90;;;;;;4995059;28;20097;-72
2021/12/11 04:11:44;;;;;;;72.65;35.25;;;3.80;99.90;;;;;;4995497;28;20057;-72
2021/12/11 04:14:14;;;;;;;62.47;31.55;;;3.80;99.90;;;;;;5001144;28;20343;-73
2021/12/11 04:16:42;;;;;;;71.75;33.50;;;3.70;99.90;;;;;;4975941;28;20085;-71
2021/12/11 04:19:12;;;;;;;60.92;33.60;;;3.80;99.90;;;;;;4975766;28;20030;-71
2021/12/11 04:21:39;;;;;;;67.28;32.63;;;3.80;99.90;;;;;;4992061;28;20026;-72
2021/12/11 04:24:08;;;;;;;61.38;32.38;;;3.90;99.90;;;;;;4953999;28;1171188;-72
2021/12/11 04:26:35;;;;;;;71.80;33.63;;;3.90;99.90;;;;;;4996603;28;20084;-71
2021/12/11 04:29:02;;;;;;;65.45;32.20;;;3.90;99.90;;;;;;4996314;28;20021;-72
2021/12/11 04:31:31;;;;;;;70.22;35.03;;;3.80;99.90;;;;;;4996026;28;20110;-70
2021/12/11 04:34:02;;;;;;;70.10;33.45;;;3.90;99.90;;;;;;4995539;28;20030;-68
2021/12/11 04:36:35;;;;;;;78.65;36.85;;;4.00;99.90;;;;;;4995418;28;20042;-72
2021/12/11 04:39:03;;;;;;;;;;;3.90;99.90;;;;;;4996309;28;20027;-72
2021/12/11 04:41:37;;;;;;;78.93;39.55;;;3.90;99.90;;;;;;4995803;28;19909;-73
2021/12/11 04:44:08;;;;;;;75.65;36.42;;;3.80;99.90;;;;;;4995344;28;20053;-73
2021/12/11 04:46:34;;;;;;;76.18;36.65;;;3.90;99.90;;;;;;4996204;28;20477;-73
2021/12/11 04:49:13;;;;;;;70.07;35.60;;;3.90;99.90;;;;;;4995011;28;20014;-71
2021/12/11 04:51:56;;;;;;;74.68;37.03;;;3.90;99.90;;;;;;4995951;28;20435;-71
2021/12/11 04:59:55;;;;;;;93.40;41.78;;;3.90;99.90;;;;;;4995314;28;20031;-73
2021/12/11 05:02:57;;;;;;;93.78;42.55;;;3.80;99.90;;;;;;4995276;28;20042;-72
2021/12/11 05:08:48;;;;;;;98.85;44.45;;;3.80;99.90;;;;;;4995144;28;20031;-72
2021/12/11 05:10:54;;;;;;;95.22;46.65;;;3.80;99.90;;;;;;4993004;28;20053;-69
2021/12/11 05:13:23;;;;;;;94.85;42.00;;;3.80;99.90;;;;;;4994980;28;20052;-71
2021/12/11 05:15:51;;;;;;;89.18;41.28;;;3.80;99.90;;;;;;4995061;28;20100;-72
2021/12/11 05:18:21;;;;;;;101.15;46.13;;;3.80;99.90;;;;;;4994778;28;20755;-72
2021/12/11 05:20:51;;;;;;;89.03;43.03;;;3.80;99.90;;;;;;4995236;28;20088;-73
2021/12/11 05:23:17;;;;;;;77.03;38.35;;;3.80;99.90;;;;;;4995232;28;20034;-70
2021/12/11 05:25:44;;;;;;;75.57;36.63;;;3.80;99.90;;;;;;4995045;28;20050;-72
2021/12/11 05:28:11;;;;;;;88.88;39.00;;;3.80;99.90;;;;;;4995086;28;20038;-72
2021/12/11 05:30:40;;;;;;;96.00;41.63;;;3.80;99.90;;;;;;4995350;28;20018;-73
2021/12/11 05:33:06;;;;;;;99.28;46.78;;;3.80;99.90;;;;;;4995117;28;20069;-71
2021/12/11 05:35:36;;;;;;;97.35;45.00;;;3.80;99.90;;;;;;4995192;28;20027;-74
2021/12/11 05:38:04;;;;;;;93.75;43.83;;;3.90;99.90;;;;;;4994868;28;20087;-73
2021/12/11 05:40:32;;;;;;;96.15;41.90;;;3.90;99.90;;;;;;4995276;28;20382;-71
2021/12/11 05:42:57;;;;;;;100.75;42.58;;;3.90;99.90;;;;;;4995167;28;20035;-70
2021/12/11 05:45:24;;;;;;;108.97;53.10;;;3.90;99.90;;;;;;4976094;28;20046;-69
2021/12/11 05:47:52;;;;;;;107.38;49.92;;;3.90;99.90;;;;;;4974827;28;20254;-73
2021/12/11 05:50:26;;;;;;;128.40;53.90;;;3.90;99.90;;;;;;4984825;28;20030;-72
2021/12/11 05:52:53;;;;;;;112.32;50.35;;;3.80;99.90;;;;;;4994822;28;20030;-73
2021/12/11 05:55:20;;;;;;;82.53;42.85;;;3.80;99.90;;;;;;4994492;28;20503;-73
2021/12/11 05:57:57;;;;;;;90.95;41.22;;;3.60;99.90;;;;;;4993575;28;20034;-71
2021/12/11 06:00:31;;;;;;;69.85;36.05;;;3.50;99.90;;;;;;4975097;28;20109;-73
2021/12/11 06:02:58;;;;;;;71.43;33.63;;;3.50;99.90;;;;;;4985698;28;20039;-73
2021/12/11 06:05:24;;;;;;;64.90;35.28;;;3.40;99.90;;;;;;4994134;28;20142;-72
2021/12/11 06:07:52;;;;;;;69.95;36.15;;;3.50;99.90;;;;;;4993818;28;20528;-71
2021/12/11 06:10:20;;;;;;;77.75;35.28;;;3.50;99.90;;;;;;4988578;28;20073;-72
2021/12/11 06:12:48;;;;;;;88.97;44.22;;;3.50;99.90;;;;;;4975112;28;20023;-71
2021/12/11 06:15:14;;;;;;;89.72;40.45;;;3.50;99.90;;;;;;4987783;28;20484;-72
2021/12/11 06:17:45;;;;;;;77.97;39.38;;;3.50;99.90;;;;;;4994267;28;20034;-70
2021/12/11 06:20:16;;;;;;;86.63;39.75;;;3.40;99.90;;;;;;4994308;28;20033;-73
2021/12/11 06:22:43;;;;;;;68.38;37.30;;;3.40;99.90;;;;;;4993891;28;20167;-72
2021/12/11 06:25:22;;;;;;;70.75;37.28;;;3.40;99.90;;;;;;4993565;28;20054;-72
2021/12/11 06:27:49;;;;;;;66.40;35.63;;;3.20;99.90;;;;;;4993127;28;20384;-73
2021/12/11 06:30:16;;;;;;;64.43;36.67;;;3.20;99.90;;;;;;4993137;28;20499;-72
2021/12/11 06:32:43;;;;;;;60.45;33.97;;;3.20;99.90;;;;;;4993532;28;20034;-73
2021/12/11 06:35:16;;;;;;;55.30;32.88;;;3.20;99.90;;;;;;4993329;28;20025;-71
2021/12/11 06:37:43;;;;;;;61.35;36.20;;;3.20;99.90;;;;;;4993352;28;20026;-72
2021/12/11 06:40:10;;;;;;;69.57;40.88;;;3.10;99.90;;;;;;4993349;28;20029;-74
2021/12/11 06:42:36;;;;;;;65.75;37.88;;;3.10;99.90;;;;;;4993915;28;20065;-71
2021/12/11 06:45:02;;;;;;;56.92;32.97;;;3.10;99.90;;;;;;4993162;28;20019;-69
2021/12/11 06:47:28;;;;;;;49.38;30.63;;;2.90;99.90;;;;;;4993328;28;20513;-71
2021/12/11 06:49:54;;;;;;;45.33;27.48;;;3.00;99.90;;;;;;4993259;28;20114;-67
2021/12/11 06:52:22;;;;;;;41.28;25.30;;;3.00;99.90;;;;;;5008695;28;20061;-72
2021/12/11 06:54:49;;;;;;;45.10;27.95;;;3.00;99.90;;;;;;4993266;28;20473;-71
2021/12/11 06:57:16;;;;;;;36.47;22.38;;;2.90;99.90;;;;;;4993352;28;20042;-72
2021/12/11 06:59:42;;;;;;;40.28;23.33;;;2.90;99.90;;;;;;4993493;28;20022;-69
2021/12/11 07:02:08;;;;;;;41.58;25.50;;;3.00;99.90;;;;;;4992189;28;20531;-71
2021/12/11 07:04:34;;;;;;;39.42;23.52;;;3.10;99.90;;;;;;4992766;28;20018;-72
2021/12/11 07:07:00;;;;;;;37.90;24.58;;;3.00;99.90;;;;;;4993383;28;20026;-70
2021/12/11 07:09:29;;;;;;;37.92;23.20;;;3.00;99.90;;;;;;4992919;28;20026;-71
2021/12/11 07:11:57;;;;;;;51.58;30.45;;;2.90;99.90;;;;;;4986849;28;20550;-72
2021/12/11 07:14:28;;;;;;;40.42;24.60;;;3.00;99.90;;;;;;4973792;28;20031;-71
2021/12/11 07:16:54;;;;;;;39.97;25.17;;;3.10;99.90;;;;;;4986226;28;20388;-71
2021/12/11 07:19:21;;;;;;;46.05;30.48;;;3.20;99.90;;;;;;4992621;28;20487;-68
2021/12/11 07:21:50;;;;;;;42.47;28.25;;;3.20;99.90;;;;;;4992578;28;20022;-68
2021/12/11 07:24:21;;;;;;;33.95;22.40;;;3.30;99.90;;;;;;4982208;28;20031;-69
2021/12/11 07:26:48;;;;;;;35.92;23.65;;;3.30;99.90;;;;;;4992815;28;20077;-71
2021/12/11 07:29:16;;;;;;;34.15;21.52;;;3.40;99.90;;;;;;4991812;28;20038;-72
2021/12/11 07:31:48;;;;;;;33.22;21.92;;;3.40;99.90;;;;;;4993113;28;20113;-71
2021/12/11 07:34:15;;;;;;;40.75;25.35;;;3.40;99.90;;;;;;4992495;28;20053;-72
2021/12/11 07:36:42;;;;;;;42.35;28.40;;;3.50;99.90;;;;;;4993080;28;20038;-73
2021/12/11 07:39:11;;;;;;;34.65;22.92;;;3.50;99.90;;;;;;4992700;28;20477;-71
2021/12/11 07:41:37;;;;;;;39.20;25.13;;;3.40;99.90;;;;;;4993051;28;20023;-71
2021/12/11 07:44:03;;;;;;;40.50;24.20;;;3.40;99.90;;;;;;4992832;28;20034;-72
2021/12/11 07:46:31;;;;;;;43.20;28.58;;;3.40;99.90;;;;;;4992876;28;20022;-72
2021/12/11 07:48:57;;;;;;;38.67;23.95;;;3.40;99.90;;;;;;4993010;28;20022;-71
2021/12/11 07:51:27;;;;;;;31.40;21.42;;;3.40;99.90;;;;;;4992765;28;20054;-72
2021/12/11 07:53:53;;;;;;;38.42;24.08;;;3.40;99.90;;;;;;4992826;28;20030;-70
2021/12/11 07:56:20;;;;;;;35.45;22.52;;;3.30;99.90;;;;;;4977574;28;20035;-72
2021/12/11 07:58:49;;;;;;;35.00;22.88;;;3.30;99.90;;;;;;4973560;28;20035;-70
2021/12/11 08:01:16;;;;;;;34.10;22.95;;;3.40;99.90;;;;;;4973203;28;20034;-70
2021/12/11 08:03:42;;;;;;;27.60;17.52;;;3.40;99.90;;;;;;4973480;28;20030;-71
2021/12/11 08:06:10;;;;;;;31.63;21.10;;;3.50;99.90;;;;;;4980258;28;20038;-70
2021/12/11 08:08:37;;;;;;;33.97;24.75;;;3.50;99.90;;;;;;4991268;28;20042;-72
2021/12/11 08:11:06;;;;;;;33.42;21.80;;;3.60;99.90;;;;;;4992386;28;20122;-70
2021/12/11 08:13:32;;;;;;;37.25;22.25;;;3.70;99.90;;;;;;4992234;28;20041;-72
2021/12/11 08:15:58;;;;;;;36.03;22.58;;;3.70;99.90;;;;;;4992404;28;20460;-71
2021/12/11 08:18:26;;;;;;;38.40;23.85;;;3.80;99.90;;;;;;5009036;28;20472;-68
2021/12/11 08:20:54;;;;;;;33.42;20.70;;;3.80;99.90;;;;;;5014870;28;20033;-70
2021/12/11 08:23:20;;;;;;;35.75;23.25;;;3.80;99.90;;;;;;5015727;28;20022;-69
2021/12/11 08:25:48;;;;;;;30.42;19.13;;;3.90;99.90;;;;;;5015662;28;20503;-71
2021/12/11 08:28:18;;;;;;;47.00;30.00;;;3.90;99.90;;;;;;5015890;28;20472;-71
2021/12/11 08:30:47;;;;;;;33.33;18.85;;;4.10;99.90;;;;;;5015392;28;20060;-71
2021/12/11 08:33:14;;;;;;;34.05;20.23;;;4.20;99.90;;;;;;4997288;28;20120;-72
2021/12/11 08:35:41;;;;;;;30.13;19.80;;;4.20;99.90;;;;;;4995754;28;20038;-70
2021/12/11 08:38:08;;;;;;;31.73;19.05;;;4.30;99.90;;;;;;4996253;28;20026;-71
2021/12/11 08:40:37;;;;;;;30.27;17.10;;;4.40;99.90;;;;;;4996498;28;20105;-70
2021/12/11 08:43:06;;;;;;;29.85;17.25;;;4.40;99.90;;;;;;4994821;28;20030;-72
2021/12/11 08:45:45;;;;;;;41.03;26.02;;;4.30;99.90;;;;;;4996068;28;20039;-72
2021/12/11 08:48:17;;;;;;;38.47;23.13;;;4.30;99.90;;;;;;4995896;28;20030;-73
2021/12/11 08:50:45;;;;;;;38.05;23.80;;;4.30;99.90;;;;;;4995481;28;20106;-72
2021/12/11 08:53:11;;;;;;;26.13;15.82;;;4.30;99.90;;;;;;4995487;28;20034;-71
2021/12/11 08:55:40;;;;;;;47.83;29.90;;;4.30;99.90;;;;;;4995633;28;20031;-71
2021/12/11 08:58:11;;;;;;;42.08;25.67;;;4.40;99.90;;;;;;4993733;28;20034;-72
2021/12/11 09:00:41;;;;;;;32.08;21.98;;;4.50;99.90;;;;;;4995424;28;20026;-74
2021/12/11 09:03:12;;;;;;;32.30;19.88;;;4.50;99.90;;;;;;4993867;28;20034;-72
2021/12/11 09:05:50;;;;;;;27.95;18.55;;;4.60;99.90;;;;;;4994911;28;20030;-72
2021/12/11 09:08:28;;;;;;;23.38;14.30;;;4.50;99.90;;;;;;4995764;28;20022;-71
2021/12/11 09:11:00;;;;;;;30.55;18.70;;;4.40;99.90;;;;;;4995838;28;20424;-73
2021/12/11 09:13:41;;;;;;;30.08;20.00;;;4.50;99.90;;;;;;4995172;28;20026;-73
2021/12/11 09:16:07;;;;;;;37.25;24.52;;;4.40;99.90;;;;;;4994946;28;20045;-72
2021/12/11 09:18:36;;;;;;;33.88;22.73;;;4.50;99.90;;;;;;5002568;28;20026;-73
2021/12/11 09:21:11;;;;;;;28.80;18.38;;;4.40;99.90;;;;;;4995217;28;20027;-71
2021/12/11 09:23:46;;;;;;;29.52;18.35;;;4.40;99.90;;;;;;4995218;28;20065;-72
2021/12/11 09:26:13;;;;;;;38.92;24.17;;;4.30;99.90;;;;;;4995214;28;20050;-72
2021/12/11 09:28:48;;;;;;;33.28;20.63;;;4.40;99.90;;;;;;4995492;28;20408;-72
2021/12/11 09:31:26;;;;;;;43.75;24.08;;;4.30;99.90;;;;;;4993791;28;20030;-73
2021/12/11 09:34:07;;;;;;;41.13;25.10;;;4.30;99.90;;;;;;4994616;28;20019;-70
2021/12/11 09:36:37;;;;;;;41.25;27.52;;;4.30;99.90;;;;;;4994428;28;20165;-73
2021/12/11 09:39:11;;;;;;;36.47;20.90;;;4.40;99.90;;;;;;4994473;28;20087;-72
2021/12/11 09:41:37;;;;;;;37.28;24.83;;;4.40;99.90;;;;;;4990840;28;20117;-72
2021/12/11 09:44:02;;;;;;;41.35;24.90;;;4.40;99.90;;;;;;4994513;28;20477;-72
2021/12/11 09:46:38;;;;;;;50.13;29.33;;;4.40;99.90;;;;;;4994425;28;20022;-68
2021/12/11 09:49:07;;;;;;;34.10;20.42;;;4.40;99.90;;;;;;4994791;28;20112;-71
2021/12/11 09:51:37;;;;;;;45.47;29.95;;;4.50;99.90;;;;;;4994597;28;20469;-72
2021/12/11 09:54:08;;;;;;;43.67;28.80;;;4.50;99.90;;;;;;4992478;28;20018;-72
2021/12/11 09:56:51;;;;;;;49.72;31.38;;;4.40;99.90;;;;;;4973822;28;20053;-72
2021/12/11 09:59:19;;;;;;;43.35;26.85;;;4.40;99.90;;;;;;4975290;28;20157;-73
2021/12/11 10:01:51;;;;;;;37.05;24.98;;;4.50;99.90;;;;;;4991927;28;20034;-72
2021/12/11 10:04:22;;;;;;;35.53;23.05;;;4.50;99.90;;;;;;4994365;28;20045;-73
2021/12/11 10:09:36;;;;;;;46.85;32.15;;;4.50;99.90;;;;;;4993284;28;20023;-72
2021/12/11 10:12:21;;;;;;;47.65;31.05;;;4.50;99.90;;;;;;4992946;28;20033;-72
2021/12/11 10:14:51;;;;;;;51.55;28.52;;;4.50;99.90;;;;;;4994410;28;20025;-73
2021/12/11 10:17:21;;;;;;;51.90;30.55;;;4.50;99.90;;;;;;4993699;28;20550;-74
2021/12/11 10:19:48;;;;;;;54.80;30.20;;;4.60;99.90;;;;;;4993371;28;20026;-73
2021/12/11 10:22:30;;;;;;;49.05;28.10;;;4.50;99.90;;;;;;4993958;28;20018;-71
2021/12/11 10:24:57;;;;;;;42.83;25.42;;;4.60;99.90;;;;;;4993813;28;20050;-72
2021/12/11 10:27:26;;;;;;;42.55;27.95;;;4.60;99.90;;;;;;4993761;28;20031;-72
2021/12/11 10:29:55;;;;;;;34.85;22.65;;;4.70;99.90;;;;;;4993810;28;20101;-73
2021/12/11 10:32:28;;;;;;;31.67;19.83;;;4.70;99.90;;;;;;4992325;28;20121;-70
2021/12/11 10:34:56;;;;;;;;;;;4.70;99.90;;;;;;4993928;28;20026;-73
2021/12/11 10:37:32;;;;;;;35.35;22.13;;;4.70;99.90;;;;;;4993908;28;19953;-72
2021/12/11 10:40:03;;;;;;;33.92;20.55;;;4.60;99.90;;;;;;4993949;28;20039;-73
2021/12/11 10:42:29;;;;;;;37.10;23.77;;;4.70;99.90;;;;;;4993133;28;20432;-71
2021/12/11 10:44:58;;;;;;;33.20;20.33;;;4.70;99.90;;;;;;4993842;28;20030;-74
2021/12/11 10:47:30;;;;;;;28.40;18.63;;;4.70;99.90;;;;;;4993768;28;20034;-73
2021/12/11 10:49:56;;;;;;;29.40;17.73;;;4.70;99.90;;;;;;4993733;28;20053;-71
2021/12/11 10:52:29;;;;;;;28.85;19.55;;;4.70;99.90;;;;;;4993103;28;20543;-71
2021/12/11 10:55:00;;;;;;;32.83;22.67;;;4.80;99.90;;;;;;4993458;28;20026;-72
2021/12/11 10:57:27;;;;;;;34.28;19.65;;;4.70;99.90;;;;;;4993803;28;20129;-72
2021/12/11 10:59:58;;;;;;;32.85;21.70;;;4.70;99.90;;;;;;4993038;28;20022;-71
2021/12/11 11:02:30;;;;;;;31.73;19.67;;;4.70;99.90;;;;;;4993000;28;20476;-73
2021/12/11 11:05:01;;;;;;;34.03;22.52;;;4.80;99.90;;;;;;4993694;28;20391;-72
2021/12/11 11:07:28;;;;;;;26.92;17.98;;;4.80;99.90;;;;;;4991682;28;20384;-67
2021/12/11 11:09:57;;;;;;;36.67;21.35;;;4.80;99.90;;;;;;4991371;28;20026;-67
2021/12/11 11:12:24;;;;;;;34.85;20.85;;;4.80;99.90;;;;;;4991483;28;20057;-73
2021/12/11 11:14:53;;;;;;;31.35;21.05;;;4.90;99.90;;;;;;4991877;28;20030;-67
2021/12/11 11:17:23;;;;;;;34.10;22.23;;;4.90;99.90;;;;;;5006553;28;20045;-74
2021/12/11 11:19:50;;;;;;;37.92;25.65;;;5.00;99.90;;;;;;4991696;28;20036;-71
2021/12/11 11:22:22;;;;;;;34.58;19.25;;;5.00;99.90;;;;;;4991308;28;20058;-71
2021/12/11 11:25:19;;;;;;;33.15;21.05;;;5.00;99.90;;;;;;4989756;28;20476;-73
2021/12/11 11:27:48;;;;;;;35.67;21.75;;;5.10;99.90;;;;;;4981353;28;20066;-71
2021/12/11 11:30:20;;;;;;;28.30;17.88;;;5.00;99.90;;;;;;4990761;28;20026;-73
2021/12/11 11:32:47;;;;;;;40.58;24.88;;;5.00;99.90;;;;;;4989601;28;20096;-71
2021/12/11 11:35:16;;;;;;;32.20;20.92;;;5.00;99.90;;;;;;4989572;28;20092;-73
2021/12/11 11:37:42;;;;;;;36.55;23.75;;;5.00;99.90;;;;;;4990631;28;20038;-72
2021/12/11 11:40:13;;;;;;;31.38;19.92;;;5.10;99.90;;;;;;4992140;28;20106;-72
2021/12/11 11:42:40;;;;;;;31.83;19.48;;;5.10;99.90;;;;;;4990500;28;20030;-72
2021/12/11 11:45:09;;;;;;;35.15;22.65;;;5.10;99.90;;;;;;4990066;28;20384;-73
2021/12/11 11:47:35;;;;;;;32.58;19.80;;;5.10;99.90;;;;;;4992966;28;20035;-72
2021/12/11 11:50:04;;;;;;;34.35;22.17;;;5.10;99.90;;;;;;4993013;28;20074;-73
2021/12/11 11:52:30;;;;;;;33.35;20.67;;;5.20;99.90;;;;;;4993090;28;20480;-72
2021/12/11 11:55:04;;;;;;;30.30;18.60;;;5.20;99.90;;;;;;4994581;28;20033;-72
2021/12/11 11:57:36;;;;;;;31.92;22.02;;;5.20;99.90;;;;;;4996915;28;20096;-72
2021/12/11 12:00:22;;;;;;;31.25;20.90;;;5.20;99.90;;;;;;4996766;28;20092;-72
2021/12/11 12:02:49;;;;;;;33.90;21.50;;;5.20;99.90;;;;;;4996354;28;20026;-73
2021/12/11 12:05:15;;;;;;;37.15;23.77;;;5.30;99.90;;;;;;4995570;28;20062;-70
2021/12/11 12:07:41;;;;;;;34.70;21.17;;;5.30;99.90;;;;;;4996662;28;20037;-69
2021/12/11 12:10:17;;;;;;;35.45;22.10;;;5.30;99.90;;;;;;4996975;28;20041;-71
2021/12/11 12:12:43;;;;;;;32.90;21.30;;;5.30;99.90;;;;;;4996645;28;20105;-70
2021/12/11 12:15:14;;;;;;;37.13;23.30;;;5.20;99.90;;;;;;4995138;28;20515;-72
2021/12/11 12:17:40;;;;;;;41.17;24.05;;;5.30;99.90;;;;;;4996629;28;20088;-73
2021/12/11 12:20:13;;;;;;;33.40;19.50;;;5.30;99.90;;;;;;4995083;28;20092;-72
2021/12/11 12:22:41;;;;;;;42.15;25.40;;;5.30;99.90;;;;;;4995438;28;20057;-73
2021/12/11 12:25:08;;;;;;;41.63;26.63;;;5.30;99.90;;;;;;4996271;28;20054;-73
2021/12/11 12:27:35;;;;;;;42.13;24.33;;;5.30;99.90;;;;;;4996549;28;20048;-71
2021/12/11 12:30:07;;;;;;;40.90;24.27;;;5.30;99.90;;;;;;4996638;28;20026;-73
2021/12/11 12:32:36;;;;;;;41.40;27.10;;;5.40;99.90;;;;;;4995664;28;20030;-72
2021/12/11 12:35:08;;;;;;;43.50;28.60;;;5.40;99.90;;;;;;4993806;28;20022;-73
2021/12/11 12:37:35;;;;;;;39.65;25.95;;;5.40;99.90;;;;;;4996073;28;20069;-74
2021/12/11 12:40:03;;;;;;;39.83;25.25;;;5.40;99.90;;;;;;4996014;28;20027;-73
2021/12/11 12:42:36;;;;;;;35.97;24.73;;;5.40;99.90;;;;;;4995887;28;20033;-74
2021/12/11 12:45:23;;;;;;;34.47;22.02;;;5.40;99.90;;;;;;4996131;28;20026;-73
2021/12/11 12:47:56;;;;;;;31.88;18.90;;;5.40;99.90;;;;;;4995907;28;20076;-73
2021/12/11 12:50:25;;;;;;;;;;;5.40;99.90;;;;;;4995467;28;20384;-72
2021/12/11 12:52:51;;;;;;;31.55;20.65;;;5.40;99.90;;;;;;4995624;28;20344;-72
2021/12/11 12:55:29;;;;;;;34.72;22.92;;;5.40;99.90;;;;;;4995643;28;20034;-73
2021/12/11 12:57:58;;;;;;;34.85;21.77;;;5.30;99.90;;;;;;4994566;28;20042;-74
2021/12/11 13:00:30;;;;;;;30.55;18.35;;;5.40;99.90;;;;;;5009681;28;20040;-73
2021/12/11 13:03:02;;;;;;;28.45;17.95;;;5.30;99.90;;;;;;5014588;28;20069;-74
2021/12/11 13:05:33;;;;;;;29.63;18.87;;;5.40;99.90;;;;;;5015235;28;20062;-72